Latest Weather Observations for Legendre Island

IDW60801

Issued at 3:04 pm WST Sunday 28 August 2016 (issued every 30 minutes, with the page automatically refreshed every 10 minutes)

About weather observations | Map of weather stations | Latest weather observations for WA | Other Formats
Station Details ID: 004095 Name: LEGENDRE ISLAND Lat: -20.36 Lon: 116.84 Height: 29.0 m
Data from the previous 72 hours. | See also: Recent months at Legendre Island
Date/Time
WST
Temp
°C
App
Temp
°C
Dew
Point
°C
Rel
Hum
%
Delta-T
°C
Wind Press
QNH
hPa
Press
MSL
hPa
Rain since
9am
mm
Dir  Spd
km/h
Gust
km/h
Spd
kts
Gust
kts
28/03:00pm 20.4 20.2 19.4 94 0.6 WSW 19 24 10 13 1011.0 1010.9 -
28/02:30pm 20.7 20.9 20.5 99 0.1 WSW 20 24 11 13 1011.2 1011.1 -
28/02:00pm 19.9 19.4 19.9 100 0.0 WSW 22 26 12 14 1011.8 1011.7 -
28/01:30pm 20.2 19.8 20.2 100 0.0 WSW 22 28 12 15 1012.0 1011.9 -
28/01:00pm 20.5 20.3 20.5 100 0.0 SW 22 28 12 15 1012.0 1011.9 -
28/12:30pm 20.5 21.2 20.5 100 0.0 SW 17 20 9 11 1012.3 1012.2 -
28/12:00pm 20.4 20.5 20.4 100 0.0 SW 20 24 11 13 1013.0 1012.9 -
28/11:30am 20.5 20.7 20.5 100 0.0 SW 20 26 11 14 1013.2 1013.1 -
28/11:00am 20.1 19.7 20.1 100 0.0 SW 22 28 12 15 1013.7 1013.6 -
28/10:30am 20.2 19.5 20.2 100 0.0 SW 24 28 13 15 1014.0 1013.9 -
28/10:00am 21.6 20.8 20.8 95 0.5 SW 26 33 14 18 1014.1 1014.0 -
28/09:30am 22.6 22.7 21.9 96 0.5 SW 24 30 13 16 1014.0 1013.9 -
28/09:00am 21.5 20.9 21.3 99 0.1 SW 26 32 14 17 1013.8 1013.7 -
28/08:30am 21.5 22.1 21.0 97 0.3 SW 19 22 10 12 1013.2 1013.1 -
28/08:00am 21.5 21.7 21.3 99 0.1 SW 22 30 12 16 1013.1 1013.0 -
28/07:30am 21.2 21.0 21.2 100 0.0 SSW 24 28 13 15 1012.7 1012.6 -
28/07:00am 21.2 20.2 21.2 100 0.0 SSW 28 33 15 18 1012.2 1012.1 -
28/06:30am 21.3 21.1 21.3 100 0.0 SW 24 32 13 17 1012.1 1012.0 -
28/06:00am 21.4 21.2 21.2 99 0.1 SW 24 28 13 15 1011.9 1011.8 -
28/05:30am 22.2 20.6 20.8 92 0.9 SW 30 35 16 19 1011.5 1011.4 -
28/05:00am 22.9 22.1 20.8 88 1.4 WSW 26 32 14 17 1011.3 1011.2 -
28/04:30am 23.1 22.5 21.2 89 1.2 WSW 26 32 14 17 1011.5 1011.4 -
28/04:00am 23.7 24.3 21.0 85 1.8 W 19 24 10 13 1011.5 1011.4 -
28/03:30am 23.5 23.7 20.2 82 2.1 W 19 22 10 12 1011.4 1011.3 -
28/03:00am 23.7 23.8 20.4 82 2.1 W 20 26 11 14 1011.7 1011.6 -
28/02:30am 23.6 23.1 19.9 80 2.4 W 22 26 12 14 1011.6 1011.5 -
28/02:00am 23.7 24.3 20.2 81 2.3 W 17 20 9 11 1012.0 1011.9 -
28/01:30am 23.7 24.2 20.0 80 2.4 W 17 20 9 11 1012.2 1012.1 -
28/01:00am 23.8 24.2 19.9 79 2.5 W 17 20 9 11 1012.4 1012.3 -
28/12:30am 23.8 24.5 19.7 78 2.6 W 15 20 8 11 1012.6 1012.5 -
28/12:00am 23.7 24.3 19.4 77 2.8 W 15 19 8 10 1012.7 1012.6 -
 
Date/Time
WST
Temp
°C
App
Temp
°C
Dew
Point
°C
Rel
Hum
%
Delta-T
°C
Wind Press
QNH
hPa
Press
MSL
hPa
Rain since
9am
mm
Dir  Spd
km/h
Gust
km/h
Spd
kts
Gust
kts
27/11:30pm 23.4 23.2 18.5 74 3.1 W 17 20 9 11 1012.8 1012.7 -
27/11:00pm 23.6 23.1 17.8 70 3.6 W 17 20 9 11 1012.9 1012.8 -
27/10:30pm 23.3 22.5 18.0 72 3.3 W 19 22 10 12 1013.0 1012.9 -
27/10:00pm 23.1 21.8 17.3 70 3.6 W 20 26 11 14 1013.1 1013.0 -
27/09:30pm 22.9 22.0 17.8 73 3.2 W 19 22 10 12 1013.4 1013.3 -
27/09:00pm 23.0 21.7 17.2 70 3.6 W 20 26 11 14 1013.1 1013.0 -
27/08:30pm 23.0 21.3 17.2 70 3.6 W 22 28 12 15 1013.2 1013.1 -
27/08:00pm 22.8 22.1 18.3 76 2.8 W 19 24 10 13 1012.9 1012.8 -
27/07:30pm 22.7 21.9 18.5 77 2.6 W 20 24 11 13 1012.8 1012.7 -
27/07:00pm 22.8 22.1 18.6 77 2.6 W 20 24 11 13 1012.4 1012.3 -
27/06:30pm 22.9 22.3 18.4 76 2.8 W 19 24 10 13 1012.0 1011.9 -
27/06:00pm 23.2 22.4 17.9 72 3.3 W 19 22 10 12 1011.9 1011.8 -
27/05:30pm 24.1 23.9 17.6 67 4.1 W 15 19 8 10 1011.8 1011.7 -
27/05:00pm 24.8 23.9 17.8 65 4.4 W 19 22 10 12 1011.8 1011.7 -
27/04:30pm 25.1 24.2 17.8 64 4.6 W 19 22 10 12 1011.6 1011.5 -
27/04:00pm 26.0 24.9 17.4 59 5.4 WSW 19 22 10 12 1011.7 1011.6 -
27/03:30pm 25.8 25.4 18.0 62 4.9 WSW 17 20 9 11 1011.5 1011.4 -
27/03:00pm 26.7 26.0 18.6 61 5.2 WSW 20 26 11 14 1011.5 1011.4 -
27/02:30pm 26.8 26.8 18.9 62 5.1 WSW 17 22 9 12 1011.5 1011.4 -
27/02:00pm 26.8 27.8 18.6 60 5.2 W 11 17 6 9 1012.0 1011.9 -
27/01:30pm 25.8 28.0 21.2 76 3.0 ENE 11 13 6 7 1012.2 1012.1 -
27/01:00pm 25.9 27.7 21.1 75 3.2 ENE 13 17 7 9 1012.8 1012.7 -
27/12:30pm 25.4 26.7 20.9 76 3.0 ENE 15 17 8 9 1013.2 1013.1 -
27/12:00pm 25.2 25.9 20.5 75 3.1 ENE 17 19 9 10 1013.8 1013.7 -
27/11:30am 25.3 26.0 20.5 75 3.1 E 17 20 9 11 1014.1 1014.0 -
27/11:00am 25.2 26.4 20.0 73 3.4 ENE 13 15 7 8 1014.6 1014.5 -
27/10:30am 25.2 26.9 20.2 74 3.3 E 11 13 6 7 1014.9 1014.8 -
27/10:00am 24.9 26.8 19.7 73 3.4 E 9 11 5 6 1015.2 1015.1 -
27/09:30am 24.9 26.6 19.3 71 3.6 N 9 11 5 6 1015.0 1014.9 -
27/09:00am 24.4 25.6 19.0 72 3.4 NNW 11 13 6 7 1014.9 1014.8 -
27/08:30am 24.2 25.5 19.3 74 3.1 NNW 11 15 6 8 1014.7 1014.6 -
27/08:00am 23.6 25.8 20.5 83 2.0 NW 9 13 5 7 1014.5 1014.4 -
27/07:30am 21.4 24.0 19.3 88 1.3 SW 4 6 2 3 1014.2 1014.1 -
27/07:00am 20.7 22.9 17.5 82 2.0 NNW 2 4 1 2 1013.9 1013.8 -
27/06:30am 21.7 24.6 18.3 81 2.1 CALM 0 0 0 0 1013.4 1013.3 -
27/06:00am 21.7 24.0 18.5 82 2.0 NNW 4 6 2 3 1013.4 1013.3 -
27/05:30am 21.4 23.1 18.0 81 2.1 NNW 6 7 3 4 1013.2 1013.1 -
27/05:00am 21.1 22.2 17.9 82 2.0 NNW 9 11 5 6 1012.9 1012.8 -
27/04:30am 21.2 22.2 17.8 81 2.1 NNW 9 11 5 6 1012.5 1012.4 -
27/04:00am 21.0 22.2 17.4 80 2.2 NNW 7 9 4 5 1012.4 1012.3 -
27/03:30am 21.2 22.4 17.4 79 2.3 NNW 7 9 4 5 1012.3 1012.2 -
27/03:00am 21.1 22.3 17.3 79 2.3 NW 7 9 4 5 1012.6 1012.5 -
27/02:30am 20.9 21.2 16.9 78 2.4 NW 11 13 6 7 1012.8 1012.7 -
27/02:00am 21.4 22.5 17.2 77 2.6 WNW 7 9 4 5 1013.2 1013.1 -
27/01:30am 21.4 22.5 17.0 76 2.7 NW 7 11 4 6 1013.2 1013.1 -
27/01:00am 22.0 22.4 17.2 74 3.0 NNW 11 15 6 8 1013.5 1013.4 -
27/12:30am 22.4 21.7 17.3 73 3.1 N 17 20 9 11 1013.5 1013.4 -
27/12:00am 22.3 21.0 16.8 71 3.4 N 19 20 10 11 1013.6 1013.5 -
 
Date/Time
WST
Temp
°C
App
Temp
°C
Dew
Point
°C
Rel
Hum
%
Delta-T
°C
Wind Press
QNH
hPa
Press
MSL
hPa
Rain since
9am
mm
Dir  Spd
km/h
Gust
km/h
Spd
kts
Gust
kts
26/11:30pm 22.4 20.8 16.4 69 3.6 N 20 24 11 13 1013.8 1013.7 -
26/11:00pm 22.4 21.6 16.2 68 3.8 N 15 19 8 10 1014.4 1014.3 -
26/10:30pm 22.4 21.9 16.0 67 3.9 N 13 17 7 9 1014.9 1014.8 -
26/10:00pm 22.4 21.6 16.2 68 3.8 NNE 15 20 8 11 1014.7 1014.6 -
26/09:30pm 22.4 21.7 16.4 69 3.6 NNE 15 17 8 9 1014.9 1014.8 -
26/09:00pm 22.4 22.4 16.2 68 3.8 NNE 11 15 6 8 1015.1 1015.0 -
26/08:30pm 22.2 22.2 16.2 69 3.6 NE 11 13 6 7 1015.2 1015.1 -
26/08:00pm 22.3 21.3 15.6 66 4.0 NE 15 17 8 9 1015.0 1014.9 -
26/07:30pm 22.5 21.2 15.8 66 4.0 NE 17 20 9 11 1014.8 1014.7 -
26/07:00pm 22.5 20.8 15.8 66 4.0 NE 19 22 10 12 1014.3 1014.2 -
26/06:30pm 22.6 20.8 15.9 66 4.0 NE 20 24 11 13 1013.8 1013.7 -
26/06:00pm 22.7 20.4 15.8 65 4.2 NE 22 24 12 13 1013.7 1013.6 -
26/05:30pm 23.0 20.5 15.1 61 4.7 NE 22 26 12 14 1013.7 1013.6 -
26/05:00pm 23.3 19.9 14.8 59 5.0 NE 26 30 14 16 1013.4 1013.3 -
26/04:30pm 23.6 19.6 14.0 55 5.6 NE 28 32 15 17 1013.2 1013.1 -
26/04:00pm 24.1 20.1 15.1 57 5.4 NE 30 35 16 19 1013.3 1013.2 -
26/03:30pm 24.0 19.2 14.1 54 5.8 NE 32 33 17 18 1013.3 1013.2 -
26/03:00pm 23.9 18.8 13.7 53 6.0 NE 33 39 18 21 1013.4 1013.3 -
26/02:30pm 24.1 18.1 13.3 51 6.3 NE 37 43 20 23 1013.6 1013.5 -
26/02:00pm 24.1 17.5 12.7 49 6.6 ENE 39 44 21 24 1013.7 1013.6 -
26/01:30pm 23.9 17.2 12.2 48 6.7 ENE 39 46 21 25 1014.3 1014.2 -
26/01:00pm 23.9 17.6 13.4 51 6.1 ENE 39 46 21 25 1014.7 1014.6 -
26/12:30pm 23.8 16.9 12.8 50 6.3 ENE 41 46 22 25 1014.8 1014.7 -
26/12:00pm 23.7 16.4 12.7 50 6.3 ENE 43 48 23 26 1015.1 1015.0 -
26/11:30am 23.6 15.8 11.3 46 6.9 ENE 43 50 23 27 1015.3 1015.2 -
26/11:00am 23.4 16.2 11.8 48 6.5 ENE 41 48 22 26 1016.4 1016.2 -
26/10:30am 23.1 15.3 11.2 47 6.6 E 43 50 23 27 1016.5 1016.3 -
26/10:00am 22.6 15.0 10.4 46 6.7 E 41 48 22 26 1016.6 1016.4 -
26/09:30am 22.6 14.6 9.0 42 7.3 E 41 48 22 26 1016.6 1016.4 -
26/09:00am 22.7 14.8 9.5 43 7.1 E 41 48 22 26 1016.8 1016.6 -
26/08:30am 22.6 15.2 9.7 44 7.0 E 39 44 21 24 1016.6 1016.4 -
26/08:00am 22.4 14.8 9.2 43 7.1 E 39 44 21 24 1016.3 1016.1 -
26/07:30am 21.4 16.6 12.8 58 4.9 E 30 39 16 21 1016.0 1015.8 -
26/07:00am 19.1 15.3 12.4 65 3.7 ESE 24 30 13 16 1015.8 1015.6 -
26/06:30am 18.0 14.8 11.8 67 3.4 SE 20 22 11 12 1015.6 1015.4 -
26/06:00am 18.0 16.3 14.7 81 1.9 ESE 17 20 9 11 1015.1 1015.0 -
26/05:30am 16.4 14.7 14.8 90 0.9 SE 17 19 9 10 1014.8 1014.7 -
26/05:00am 17.1 15.4 15.8 92 0.8 SSE 19 22 10 12 1014.6 1014.5 -
26/04:30am 17.2 15.6 15.9 92 0.8 SSE 19 20 10 11 1014.4 1014.3 -
26/04:00am 17.4 16.1 15.7 90 1.0 SSE 17 17 9 9 1014.6 1014.5 -
26/03:30am 17.5 16.1 15.5 88 1.2 SSE 17 17 9 9 1014.5 1014.4 -
26/03:00am 17.7 16.6 15.3 86 1.4 SSE 15 17 8 9 1014.5 1014.4 -
26/02:30am 17.8 16.7 15.2 85 1.5 SSE 15 17 8 9 1014.5 1014.4 -
26/02:00am 18.1 16.7 15.5 85 1.5 SSE 17 17 9 9 1014.6 1014.5 -
26/01:30am 18.3 17.2 15.4 83 1.7 SSE 15 15 8 8 1015.0 1014.9 -
26/01:00am 18.3 17.3 14.6 79 2.1 SSE 13 15 7 8 1015.5 1015.3 -
26/12:30am 19.0 18.0 14.7 76 2.5 SSE 13 15 7 8 1015.7 1015.5 -
26/12:00am 18.9 17.9 13.3 70 3.2 SSE 11 11 6 6 1015.8 1015.6 -
 
Date/Time
WST
Temp
°C
App
Temp
°C
Dew
Point
°C
Rel
Hum
%
Delta-T
°C
Wind Press
QNH
hPa
Press
MSL
hPa
Rain since
9am
mm
Dir  Spd
km/h
Gust
km/h
Spd
kts
Gust
kts
25/11:30pm 20.9 20.6 11.3 54 5.3 ESE 4 6 2 3 1015.9 1015.7 -
25/11:00pm 21.6 20.9 11.3 52 5.7 E 6 7 3 4 1016.0 1015.8 -
25/10:30pm 22.1 21.2 11.2 50 6.1 NE 7 9 4 5 1016.2 1016.0 -
25/10:00pm 22.1 20.9 11.5 51 5.9 NNE 9 11 5 6 1016.1 1015.9 -
25/09:30pm 22.1 20.5 10.3 47 6.4 NNE 9 11 5 6 1016.2 1016.0 -
25/09:00pm 22.0 20.9 10.8 49 6.2 NNE 7 9 4 5 1016.4 1016.2 -
25/08:30pm 22.4 21.1 11.2 49 6.2 N 9 13 5 7 1016.3 1016.1 -
25/08:00pm 22.4 20.6 10.9 48 6.4 N 11 13 6 7 1016.1 1015.9 -
25/07:30pm 22.7 20.2 9.8 44 7.0 N 13 15 7 8 1016.0 1015.8 -
25/07:00pm 22.8 19.9 9.6 43 7.1 NNE 15 17 8 9 1015.8 1015.6 -
25/06:30pm 22.7 19.5 11.4 49 6.3 NNE 19 20 10 11 1015.5 1015.3 -
25/06:00pm 22.9 19.5 11.3 48 6.5 NNE 20 24 11 13 1015.0 1014.9 -
25/05:30pm 23.2 19.2 10.6 45 7.0 NNE 22 26 12 14 1014.8 1014.7 -
25/05:00pm 23.6 19.4 9.6 41 7.6 NNE 22 28 12 15 1014.8 1014.7 -
25/04:30pm 23.9 19.9 11.9 47 6.8 NNE 24 30 13 16 1014.7 1014.6 -
25/04:00pm 24.1 19.2 10.0 41 7.7 NNE 26 32 14 17 1014.6 1014.5 -
25/03:30pm 24.6 19.3 8.5 36 8.6 NNE 26 30 14 16 1014.7 1014.6 -

Other Formats:

Comma delimited format used in spreadsheet applications
http://www.bom.gov.au/fwo/IDW60801/IDW60801.94307.axf

JavaScript Object Notation format (JSON) in row-major order
http://www.bom.gov.au/fwo/IDW60801/IDW60801.94307.json